sensor_id;sensor_type;location;lat;lon;timestamp;temperature;humidity
43673;DHT22;41723;49.326;8.430;2022-12-24T00:00:26;12.30;99.90
43673;DHT22;41723;49.326;8.430;2022-12-24T00:02:52;12.30;99.90
43673;DHT22;41723;49.326;8.430;2022-12-24T00:05:17;12.20;99.90
43673;DHT22;41723;49.326;8.430;2022-12-24T00:07:43;12.20;99.90
43673;DHT22;41723;49.326;8.430;2022-12-24T00:10:09;12.20;99.90
43673;DHT22;41723;49.326;8.430;2022-12-24T00:12:34;12.20;99.90
43673;DHT22;41723;49.326;8.430;2022-12-24T00:15:00;12.40;99.90
43673;DHT22;41723;49.326;8.430;2022-12-24T00:17:26;12.30;99.90
43673;DHT22;41723;49.326;8.430;2022-12-24T00:19:51;12.40;99.90
43673;DHT22;41723;49.326;8.430;2022-12-24T00:22:17;12.40;99.90
43673;DHT22;41723;49.326;8.430;2022-12-24T00:24:43;12.30;99.90
43673;DHT22;41723;49.326;8.430;2022-12-24T00:27:08;12.30;99.90
43673;DHT22;41723;49.326;8.430;2022-12-24T00:29:34;12.30;99.90
43673;DHT22;41723;49.326;8.430;2022-12-24T00:31:59;12.40;99.90
43673;DHT22;41723;49.326;8.430;2022-12-24T00:34:25;12.30;99.90
43673;DHT22;41723;49.326;8.430;2022-12-24T00:36:51;12.30;99.90
43673;DHT22;41723;49.326;8.430;2022-12-24T00:39:17;12.20;99.90
43673;DHT22;41723;49.326;8.430;2022-12-24T00:41:43;12.20;99.90
43673;DHT22;41723;49.326;8.430;2022-12-24T00:44:08;12.20;99.90
43673;DHT22;41723;49.326;8.430;2022-12-24T00:46:35;12.20;99.90
43673;DHT22;41723;49.326;8.430;2022-12-24T00:49:00;12.20;99.90
43673;DHT22;41723;49.326;8.430;2022-12-24T00:51:27;12.20;99.90
43673;DHT22;41723;49.326;8.430;2022-12-24T00:53:52;12.20;99.90
43673;DHT22;41723;49.326;8.430;2022-12-24T00:56:18;12.20;99.90
43673;DHT22;41723;49.326;8.430;2022-12-24T00:58:44;12.20;99.90
43673;DHT22;41723;49.326;8.430;2022-12-24T01:01:09;12.30;99.90
43673;DHT22;41723;49.326;8.430;2022-12-24T01:03:35;12.30;99.90
43673;DHT22;41723;49.326;8.430;2022-12-24T01:06:05;12.30;99.90
43673;DHT22;41723;49.326;8.430;2022-12-24T01:08:31;12.30;99.90
43673;DHT22;41723;49.326;8.430;2022-12-24T01:10:57;12.20;99.90
43673;DHT22;41723;49.326;8.430;2022-12-24T01:13:23;12.20;99.90
43673;DHT22;41723;49.326;8.430;2022-12-24T01:15:49;12.20;99.90
43673;DHT22;41723;49.326;8.430;2022-12-24T01:18:14;12.20;99.90
43673;DHT22;41723;49.326;8.430;2022-12-24T01:20:40;12.20;99.90
43673;DHT22;41723;49.326;8.430;2022-12-24T01:23:06;12.20;99.90
43673;DHT22;41723;49.326;8.430;2022-12-24T01:25:31;12.20;99.90
43673;DHT22;41723;49.326;8.430;2022-12-24T01:27:57;12.20;99.90
43673;DHT22;41723;49.326;8.430;2022-12-24T01:30:22;12.20;99.90
43673;DHT22;41723;49.326;8.430;2022-12-24T01:32:48;12.20;99.90
43673;DHT22;41723;49.326;8.430;2022-12-24T01:35:14;12.10;99.90
43673;DHT22;41723;49.326;8.430;2022-12-24T01:37:40;12.10;99.90
43673;DHT22;41723;49.326;8.430;2022-12-24T01:40:07;12.10;99.90
43673;DHT22;41723;49.326;8.430;2022-12-24T01:42:51;12.10;99.90
43673;DHT22;41723;49.326;8.430;2022-12-24T01:45:40;12.10;99.90
43673;DHT22;41723;49.326;8.430;2022-12-24T01:50:52;12.10;99.90
43673;DHT22;41723;49.326;8.430;2022-12-24T01:53:20;12.10;99.90
43673;DHT22;41723;49.326;8.430;2022-12-24T01:55:46;12.10;99.90
43673;DHT22;41723;49.326;8.430;2022-12-24T01:58:12;12.10;99.90
43673;DHT22;41723;49.326;8.430;2022-12-24T02:00:38;12.10;99.90
43673;DHT22;41723;49.326;8.430;2022-12-24T02:03:04;12.10;99.90
43673;DHT22;41723;49.326;8.430;2022-12-24T02:05:51;12.00;99.90
43673;DHT22;41723;49.326;8.430;2022-12-24T02:08:16;12.10;99.90
43673;DHT22;41723;49.326;8.430;2022-12-24T02:10:42;12.10;99.90
43673;DHT22;41723;49.326;8.430;2022-12-24T02:13:08;12.10;99.90
43673;DHT22;41723;49.326;8.430;2022-12-24T02:15:43;12.10;99.90
43673;DHT22;41723;49.326;8.430;2022-12-24T02:18:29;12.10;99.90
43673;DHT22;41723;49.326;8.430;2022-12-24T02:29:13;12.10;99.90
43673;DHT22;41723;49.326;8.430;2022-12-24T02:31:35;12.20;99.90
43673;DHT22;41723;49.326;8.430;2022-12-24T02:36:31;12.00;99.90
43673;DHT22;41723;49.326;8.430;2022-12-24T02:39:03;12.00;99.90
43673;DHT22;41723;49.326;8.430;2022-12-24T02:41:40;12.10;99.90
43673;DHT22;41723;49.326;8.430;2022-12-24T02:44:27;12.10;99.90
43673;DHT22;41723;49.326;8.430;2022-12-24T02:46:53;12.10;99.90
43673;DHT22;41723;49.326;8.430;2022-12-24T02:49:20;12.00;99.90
43673;DHT22;41723;49.326;8.430;2022-12-24T02:51:45;12.00;99.90
43673;DHT22;41723;49.326;8.430;2022-12-24T02:54:11;12.00;99.90
43673;DHT22;41723;49.326;8.430;2022-12-24T02:59:19;11.80;99.90
43673;DHT22;41723;49.326;8.430;2022-12-24T03:01:52;11.80;99.90
43673;DHT22;41723;49.326;8.430;2022-12-24T03:04:22;11.80;99.90
43673;DHT22;41723;49.326;8.430;2022-12-24T03:07:14;11.60;99.90
43673;DHT22;41723;49.326;8.430;2022-12-24T03:12:08;11.70;99.90
43673;DHT22;41723;49.326;8.430;2022-12-24T03:14:34;11.60;99.90
43673;DHT22;41723;49.326;8.430;2022-12-24T03:17:00;11.60;99.90
43673;DHT22;41723;49.326;8.430;2022-12-24T03:19:27;11.60;99.90
43673;DHT22;41723;49.326;8.430;2022-12-24T03:21:53;11.60;99.90
43673;DHT22;41723;49.326;8.430;2022-12-24T03:24:20;11.60;99.90
43673;DHT22;41723;49.326;8.430;2022-12-24T03:26:46;11.60;99.90
43673;DHT22;41723;49.326;8.430;2022-12-24T03:29:12;11.60;99.90
43673;DHT22;41723;49.326;8.430;2022-12-24T03:31:48;11.60;99.90
43673;DHT22;41723;49.326;8.430;2022-12-24T03:34:14;11.50;99.90
43673;DHT22;41723;49.326;8.430;2022-12-24T03:36:40;11.50;99.90
43673;DHT22;41723;49.326;8.430;2022-12-24T03:39:06;11.50;99.90
43673;DHT22;41723;49.326;8.430;2022-12-24T03:41:32;11.50;99.90
43673;DHT22;41723;49.326;8.430;2022-12-24T03:43:58;11.60;99.90
43673;DHT22;41723;49.326;8.430;2022-12-24T03:46:23;11.60;99.90
43673;DHT22;41723;49.326;8.430;2022-12-24T03:48:49;11.60;99.90
43673;DHT22;41723;49.326;8.430;2022-12-24T03:51:19;11.70;99.90
43673;DHT22;41723;49.326;8.430;2022-12-24T03:53:45;11.60;99.90
43673;DHT22;41723;49.326;8.430;2022-12-24T03:56:11;11.60;99.90
43673;DHT22;41723;49.326;8.430;2022-12-24T03:58:36;11.60;99.90
43673;DHT22;41723;49.326;8.430;2022-12-24T04:01:02;11.60;99.90
43673;DHT22;41723;49.326;8.430;2022-12-24T04:03:27;11.60;99.90
43673;DHT22;41723;49.326;8.430;2022-12-24T04:06:03;11.60;99.90
43673;DHT22;41723;49.326;8.430;2022-12-24T04:08:29;11.60;99.90
43673;DHT22;41723;49.326;8.430;2022-12-24T04:10:55;11.60;99.90
43673;DHT22;41723;49.326;8.430;2022-12-24T04:13:20;11.70;99.90
43673;DHT22;41723;49.326;8.430;2022-12-24T04:15:55;11.70;99.90
43673;DHT22;41723;49.326;8.430;2022-12-24T04:18:20;11.60;99.90
43673;DHT22;41723;49.326;8.430;2022-12-24T04:20:46;11.70;99.90
43673;DHT22;41723;49.326;8.430;2022-12-24T04:23:11;11.60;99.90
43673;DHT22;41723;49.326;8.430;2022-12-24T04:25:37;11.60;99.90
43673;DHT22;41723;49.326;8.430;2022-12-24T04:28:02;11.70;99.90
43673;DHT22;41723;49.326;8.430;2022-12-24T04:30:28;11.60;99.90
43673;DHT22;41723;49.326;8.430;2022-12-24T04:32:54;11.70;99.90
43673;DHT22;41723;49.326;8.430;2022-12-24T04:35:19;11.60;99.90
43673;DHT22;41723;49.326;8.430;2022-12-24T04:37:45;11.60;99.90
43673;DHT22;41723;49.326;8.430;2022-12-24T04:40:10;11.50;99.90
43673;DHT22;41723;49.326;8.430;2022-12-24T04:42:36;11.50;99.90
43673;DHT22;41723;49.326;8.430;2022-12-24T04:45:01;11.50;99.90
43673;DHT22;41723;49.326;8.430;2022-12-24T04:47:27;11.50;99.90
43673;DHT22;41723;49.326;8.430;2022-12-24T04:49:53;11.40;99.90
43673;DHT22;41723;49.326;8.430;2022-12-24T04:52:18;11.60;99.90
43673;DHT22;41723;49.326;8.430;2022-12-24T04:54:44;11.50;99.90
43673;DHT22;41723;49.326;8.430;2022-12-24T04:57:09;11.50;99.90
43673;DHT22;41723;49.326;8.430;2022-12-24T04:59:35;11.50;99.90
43673;DHT22;41723;49.326;8.430;2022-12-24T05:02:01;11.50;99.90
43673;DHT22;41723;49.326;8.430;2022-12-24T05:04:26;11.50;99.90
43673;DHT22;41723;49.326;8.430;2022-12-24T05:06:52;11.50;99.90
43673;DHT22;41723;49.326;8.430;2022-12-24T05:09:17;11.50;99.90
43673;DHT22;41723;49.326;8.430;2022-12-24T05:11:43;11.40;99.90
43673;DHT22;41723;49.326;8.430;2022-12-24T05:14:08;11.50;99.90
43673;DHT22;41723;49.326;8.430;2022-12-24T05:16:34;11.50;99.90
43673;DHT22;41723;49.326;8.430;2022-12-24T05:19:00;11.50;99.90
43673;DHT22;41723;49.326;8.430;2022-12-24T05:21:25;11.60;99.90
43673;DHT22;41723;49.326;8.430;2022-12-24T05:23:51;11.60;99.90
43673;DHT22;41723;49.326;8.430;2022-12-24T05:26:40;11.50;99.90
43673;DHT22;41723;49.326;8.430;2022-12-24T05:29:06;11.50;99.90
43673;DHT22;41723;49.326;8.430;2022-12-24T05:31:32;11.60;99.90
43673;DHT22;41723;49.326;8.430;2022-12-24T05:33:58;11.60;99.90
43673;DHT22;41723;49.326;8.430;2022-12-24T05:36:24;11.60;99.90
43673;DHT22;41723;49.326;8.430;2022-12-24T05:38:50;11.60;99.90
43673;DHT22;41723;49.326;8.430;2022-12-24T05:41:15;11.50;99.90
43673;DHT22;41723;49.326;8.430;2022-12-24T05:43:41;11.60;99.90
43673;DHT22;41723;49.326;8.430;2022-12-24T05:46:12;11.70;99.90
43673;DHT22;41723;49.326;8.430;2022-12-24T05:48:38;11.60;99.90
43673;DHT22;41723;49.326;8.430;2022-12-24T05:51:04;11.60;99.90
43673;DHT22;41723;49.326;8.430;2022-12-24T05:53:30;11.60;99.90
43673;DHT22;41723;49.326;8.430;2022-12-24T05:56:30;11.70;99.90
43673;DHT22;41723;49.326;8.430;2022-12-24T05:58:48;11.60;99.90
43673;DHT22;41723;49.326;8.430;2022-12-24T06:01:15;11.60;99.90
43673;DHT22;41723;49.326;8.430;2022-12-24T06:03:40;11.60;99.90
43673;DHT22;41723;49.326;8.430;2022-12-24T06:06:11;11.60;99.90
43673;DHT22;41723;49.326;8.430;2022-12-24T06:08:37;11.70;99.90
43673;DHT22;41723;49.326;8.430;2022-12-24T06:11:04;11.70;99.90
43673;DHT22;41723;49.326;8.430;2022-12-24T06:13:30;11.70;99.90
43673;DHT22;41723;49.326;8.430;2022-12-24T06:15:56;11.60;99.90
43673;DHT22;41723;49.326;8.430;2022-12-24T06:18:22;11.60;99.90
43673;DHT22;41723;49.326;8.430;2022-12-24T06:20:51;11.80;99.90
43673;DHT22;41723;49.326;8.430;2022-12-24T06:23:17;11.70;99.90
43673;DHT22;41723;49.326;8.430;2022-12-24T06:25:42;11.70;99.90
43673;DHT22;41723;49.326;8.430;2022-12-24T06:28:08;11.80;99.90
43673;DHT22;41723;49.326;8.430;2022-12-24T06:30:33;11.70;99.90
43673;DHT22;41723;49.326;8.430;2022-12-24T06:32:59;11.70;99.90
43673;DHT22;41723;49.326;8.430;2022-12-24T06:35:25;11.70;99.90
43673;DHT22;41723;49.326;8.430;2022-12-24T06:37:50;11.60;99.90
43673;DHT22;41723;49.326;8.430;2022-12-24T06:40:16;11.60;99.90
43673;DHT22;41723;49.326;8.430;2022-12-24T06:42:42;11.60;99.90
43673;DHT22;41723;49.326;8.430;2022-12-24T06:45:07;11.60;99.90
43673;DHT22;41723;49.326;8.430;2022-12-24T06:47:33;11.60;99.90
43673;DHT22;41723;49.326;8.430;2022-12-24T06:49:59;11.50;99.90
43673;DHT22;41723;49.326;8.430;2022-12-24T06:52:24;11.60;99.90
43673;DHT22;41723;49.326;8.430;2022-12-24T06:54:50;11.60;99.90
43673;DHT22;41723;49.326;8.430;2022-12-24T06:57:15;11.50;99.90
43673;DHT22;41723;49.326;8.430;2022-12-24T06:59:41;11.50;99.90
43673;DHT22;41723;49.326;8.430;2022-12-24T07:02:07;11.40;99.90
43673;DHT22;41723;49.326;8.430;2022-12-24T07:04:33;11.40;99.90
43673;DHT22;41723;49.326;8.430;2022-12-24T07:06:59;11.40;99.90
43673;DHT22;41723;49.326;8.430;2022-12-24T07:09:24;11.40;99.90
43673;DHT22;41723;49.326;8.430;2022-12-24T07:11:50;11.40;99.90
43673;DHT22;41723;49.326;8.430;2022-12-24T07:14:15;11.40;99.90
43673;DHT22;41723;49.326;8.430;2022-12-24T07:16:41;11.40;99.90
43673;DHT22;41723;49.326;8.430;2022-12-24T07:19:06;11.40;99.90
43673;DHT22;41723;49.326;8.430;2022-12-24T07:21:32;11.40;99.90
43673;DHT22;41723;49.326;8.430;2022-12-24T07:23:57;11.40;99.90
43673;DHT22;41723;49.326;8.430;2022-12-24T07:26:23;11.40;99.90
43673;DHT22;41723;49.326;8.430;2022-12-24T07:28:49;11.40;99.90
43673;DHT22;41723;49.326;8.430;2022-12-24T07:31:14;11.40;99.90
43673;DHT22;41723;49.326;8.430;2022-12-24T07:33:39;11.40;99.90
43673;DHT22;41723;49.326;8.430;2022-12-24T07:36:06;11.40;99.90
43673;DHT22;41723;49.326;8.430;2022-12-24T07:38:32;11.40;99.90
43673;DHT22;41723;49.326;8.430;2022-12-24T07:40:58;11.40;99.90
43673;DHT22;41723;49.326;8.430;2022-12-24T07:43:24;11.40;99.90
43673;DHT22;41723;49.326;8.430;2022-12-24T07:45:50;11.40;99.90
43673;DHT22;41723;49.326;8.430;2022-12-24T07:48:18;11.40;99.90
43673;DHT22;41723;49.326;8.430;2022-12-24T07:50:44;11.40;99.90
43673;DHT22;41723;49.326;8.430;2022-12-24T07:53:09;11.40;99.90
43673;DHT22;41723;49.326;8.430;2022-12-24T07:55:35;11.40;99.90
43673;DHT22;41723;49.326;8.430;2022-12-24T07:58:01;11.50;99.90
43673;DHT22;41723;49.326;8.430;2022-12-24T08:00:26;11.40;99.90
43673;DHT22;41723;49.326;8.430;2022-12-24T08:02:52;11.50;99.90
43673;DHT22;41723;49.326;8.430;2022-12-24T08:05:17;11.50;99.90
43673;DHT22;41723;49.326;8.430;2022-12-24T08:07:43;11.50;99.90
43673;DHT22;41723;49.326;8.430;2022-12-24T08:10:09;11.50;99.90
43673;DHT22;41723;49.326;8.430;2022-12-24T08:12:35;11.50;99.90
43673;DHT22;41723;49.326;8.430;2022-12-24T08:15:00;11.50;99.90
43673;DHT22;41723;49.326;8.430;2022-12-24T08:17:26;11.50;99.90
43673;DHT22;41723;49.326;8.430;2022-12-24T08:19:51;11.50;99.90
43673;DHT22;41723;49.326;8.430;2022-12-24T08:22:17;11.50;99.90
43673;DHT22;41723;49.326;8.430;2022-12-24T08:24:43;11.50;99.90
43673;DHT22;41723;49.326;8.430;2022-12-24T08:27:08;11.50;99.90
43673;DHT22;41723;49.326;8.430;2022-12-24T08:29:34;11.50;99.90
43673;DHT22;41723;49.326;8.430;2022-12-24T08:31:59;11.50;99.90
43673;DHT22;41723;49.326;8.430;2022-12-24T08:34:25;11.60;99.90
43673;DHT22;41723;49.326;8.430;2022-12-24T08:36:50;11.60;99.90
43673;DHT22;41723;49.326;8.430;2022-12-24T08:39:16;11.60;99.90
43673;DHT22;41723;49.326;8.430;2022-12-24T08:41:42;11.60;99.90
43673;DHT22;41723;49.326;8.430;2022-12-24T08:44:07;11.60;99.90
43673;DHT22;41723;49.326;8.430;2022-12-24T08:46:33;11.70;99.90
43673;DHT22;41723;49.326;8.430;2022-12-24T08:48:58;11.70;99.90
43673;DHT22;41723;49.326;8.430;2022-12-24T08:51:24;11.70;99.90
43673;DHT22;41723;49.326;8.430;2022-12-24T08:53:49;11.70;99.90
43673;DHT22;41723;49.326;8.430;2022-12-24T08:56:15;11.70;99.90
43673;DHT22;41723;49.326;8.430;2022-12-24T08:58:41;11.70;99.90
43673;DHT22;41723;49.326;8.430;2022-12-24T09:01:11;11.60;99.90
43673;DHT22;41723;49.326;8.430;2022-12-24T09:03:37;11.70;99.90
43673;DHT22;41723;49.326;8.430;2022-12-24T09:06:03;11.60;99.90
43673;DHT22;41723;49.326;8.430;2022-12-24T09:08:29;11.60;99.90
43673;DHT22;41723;49.326;8.430;2022-12-24T09:10:54;11.60;99.90
43673;DHT22;41723;49.326;8.430;2022-12-24T09:13:20;11.60;99.90
43673;DHT22;41723;49.326;8.430;2022-12-24T09:15:55;11.60;99.90
43673;DHT22;41723;49.326;8.430;2022-12-24T09:18:20;11.60;99.90
43673;DHT22;41723;49.326;8.430;2022-12-24T09:20:47;11.60;99.90
43673;DHT22;41723;49.326;8.430;2022-12-24T09:23:13;11.60;99.90
43673;DHT22;41723;49.326;8.430;2022-12-24T09:25:42;11.70;99.90
43673;DHT22;41723;49.326;8.430;2022-12-24T09:28:08;11.70;99.90
43673;DHT22;41723;49.326;8.430;2022-12-24T09:30:34;11.70;99.90
43673;DHT22;41723;49.326;8.430;2022-12-24T09:32:59;11.70;99.90
43673;DHT22;41723;49.326;8.430;2022-12-24T09:35:25;11.80;99.90
43673;DHT22;41723;49.326;8.430;2022-12-24T09:37:51;11.80;99.90
43673;DHT22;41723;49.326;8.430;2022-12-24T09:40:30;11.80;99.90
43673;DHT22;41723;49.326;8.430;2022-12-24T09:42:57;11.90;99.90
43673;DHT22;41723;49.326;8.430;2022-12-24T09:45:25;12.00;99.90
43673;DHT22;41723;49.326;8.430;2022-12-24T09:48:26;12.00;99.90
43673;DHT22;41723;49.326;8.430;2022-12-24T09:53:21;12.10;99.90
43673;DHT22;41723;49.326;8.430;2022-12-24T09:55:52;12.20;99.90
43673;DHT22;41723;49.326;8.430;2022-12-24T09:58:28;12.40;99.90
43673;DHT22;41723;49.326;8.430;2022-12-24T10:00:55;12.50;99.90
43673;DHT22;41723;49.326;8.430;2022-12-24T10:03:21;12.50;99.90
43673;DHT22;41723;49.326;8.430;2022-12-24T10:05:50;12.60;99.90
43673;DHT22;41723;49.326;8.430;2022-12-24T10:08:20;12.60;99.90
43673;DHT22;41723;49.326;8.430;2022-12-24T10:16:36;12.70;99.90
43673;DHT22;41723;49.326;8.430;2022-12-24T10:21:58;12.80;99.90
43673;DHT22;41723;49.326;8.430;2022-12-24T10:24:25;12.80;99.90
43673;DHT22;41723;49.326;8.430;2022-12-24T10:26:56;12.80;99.90
43673;DHT22;41723;49.326;8.430;2022-12-24T10:29:25;12.90;99.90
43673;DHT22;41723;49.326;8.430;2022-12-24T10:31:57;13.10;99.90
43673;DHT22;41723;49.326;8.430;2022-12-24T10:34:27;13.10;99.90
43673;DHT22;41723;49.326;8.430;2022-12-24T10:36:55;13.00;99.90
43673;DHT22;41723;49.326;8.430;2022-12-24T10:39:21;13.00;99.90
43673;DHT22;41723;49.326;8.430;2022-12-24T10:41:48;13.00;99.90
43673;DHT22;41723;49.326;8.430;2022-12-24T10:44:15;13.00;99.90
43673;DHT22;41723;49.326;8.430;2022-12-24T10:46:41;13.10;99.90
43673;DHT22;41723;49.326;8.430;2022-12-24T10:49:12;13.20;99.90
43673;DHT22;41723;49.326;8.430;2022-12-24T10:51:52;13.20;99.90
43673;DHT22;41723;49.326;8.430;2022-12-24T10:54:19;13.30;99.90
43673;DHT22;41723;49.326;8.430;2022-12-24T10:56:46;13.30;99.90
43673;DHT22;41723;49.326;8.430;2022-12-24T10:59:22;13.40;99.90
43673;DHT22;41723;49.326;8.430;2022-12-24T11:01:49;13.50;99.90
43673;DHT22;41723;49.326;8.430;2022-12-24T11:04:16;13.50;99.90
43673;DHT22;41723;49.326;8.430;2022-12-24T11:06:52;13.50;99.90
43673;DHT22;41723;49.326;8.430;2022-12-24T11:09:21;13.50;99.90
43673;DHT22;41723;49.326;8.430;2022-12-24T11:11:47;13.40;99.90
43673;DHT22;41723;49.326;8.430;2022-12-24T11:14:13;13.30;99.90
43673;DHT22;41723;49.326;8.430;2022-12-24T11:16:45;13.20;99.90
43673;DHT22;41723;49.326;8.430;2022-12-24T11:19:16;13.10;99.90
43673;DHT22;41723;49.326;8.430;2022-12-24T11:21:42;13.10;99.90
43673;DHT22;41723;49.326;8.430;2022-12-24T11:26:36;13.10;99.90
43673;DHT22;41723;49.326;8.430;2022-12-24T11:29:03;13.10;99.90
43673;DHT22;41723;49.326;8.430;2022-12-24T11:31:29;13.30;99.90
43673;DHT22;41723;49.326;8.430;2022-12-24T11:33:57;13.30;99.90
43673;DHT22;41723;49.326;8.430;2022-12-24T11:36:22;13.30;99.90
43673;DHT22;41723;49.326;8.430;2022-12-24T11:38:52;13.30;99.90
43673;DHT22;41723;49.326;8.430;2022-12-24T11:41:19;13.20;99.90
43673;DHT22;41723;49.326;8.430;2022-12-24T11:43:49;13.20;99.90
43673;DHT22;41723;49.326;8.430;2022-12-24T11:48:40;13.20;99.90
43673;DHT22;41723;49.326;8.430;2022-12-24T11:51:08;13.20;99.90
43673;DHT22;41723;49.326;8.430;2022-12-24T11:53:43;13.20;99.90
43673;DHT22;41723;49.326;8.430;2022-12-24T11:56:27;13.20;99.90
43673;DHT22;41723;49.326;8.430;2022-12-24T11:58:55;13.20;99.90
43673;DHT22;41723;49.326;8.430;2022-12-24T12:01:24;13.10;99.90
43673;DHT22;41723;49.326;8.430;2022-12-24T12:03:52;13.10;99.90
43673;DHT22;41723;49.326;8.430;2022-12-24T12:06:37;13.00;99.90
43673;DHT22;41723;49.326;8.430;2022-12-24T12:11:42;12.90;99.90
43673;DHT22;41723;49.326;8.430;2022-12-24T12:14:12;12.80;99.90
43673;DHT22;41723;49.326;8.430;2022-12-24T12:16:42;12.70;99.90
43673;DHT22;41723;49.326;8.430;2022-12-24T12:19:27;12.70;99.90
43673;DHT22;41723;49.326;8.430;2022-12-24T12:21:54;12.70;99.90
43673;DHT22;41723;49.326;8.430;2022-12-24T12:24:36;12.80;99.90
43673;DHT22;41723;49.326;8.430;2022-12-24T12:29:49;12.70;99.90
43673;DHT22;41723;49.326;8.430;2022-12-24T12:32:23;12.70;99.90
43673;DHT22;41723;49.326;8.430;2022-12-24T12:34:54;12.70;99.90
43673;DHT22;41723;49.326;8.430;2022-12-24T12:37:27;12.70;99.90
43673;DHT22;41723;49.326;8.430;2022-12-24T12:39:55;12.60;99.90
43673;DHT22;41723;49.326;8.430;2022-12-24T12:42:26;12.70;99.90
43673;DHT22;41723;49.326;8.430;2022-12-24T12:57:49;12.70;99.90
43673;DHT22;41723;49.326;8.430;2022-12-24T13:00:16;12.80;99.90
43673;DHT22;41723;49.326;8.430;2022-12-24T13:13:15;12.50;99.90
43673;DHT22;41723;49.326;8.430;2022-12-24T13:15:55;12.50;99.90
43673;DHT22;41723;49.326;8.430;2022-12-24T13:21:20;12.50;99.90
43673;DHT22;41723;49.326;8.430;2022-12-24T13:23:47;12.40;99.90
43673;DHT22;41723;49.326;8.430;2022-12-24T13:26:13;12.30;99.90
43673;DHT22;41723;49.326;8.430;2022-12-24T13:28:39;12.20;99.90
43673;DHT22;41723;49.326;8.430;2022-12-24T13:33:49;12.20;99.90
43673;DHT22;41723;49.326;8.430;2022-12-24T13:36:16;12.20;99.90
43673;DHT22;41723;49.326;8.430;2022-12-24T13:44:37;12.10;99.90
43673;DHT22;41723;49.326;8.430;2022-12-24T13:49:17;12.10;99.90
43673;DHT22;41723;49.326;8.430;2022-12-24T13:51:43;12.10;99.90
43673;DHT22;41723;49.326;8.430;2022-12-24T13:54:10;12.10;99.90
43673;DHT22;41723;49.326;8.430;2022-12-24T13:56:36;12.10;99.90
43673;DHT22;41723;49.326;8.430;2022-12-24T14:01:57;12.20;99.90
43673;DHT22;41723;49.326;8.430;2022-12-24T14:04:32;12.20;99.90
43673;DHT22;41723;49.326;8.430;2022-12-24T14:06:59;12.20;99.90
43673;DHT22;41723;49.326;8.430;2022-12-24T14:09:26;12.20;99.90
43673;DHT22;41723;49.326;8.430;2022-12-24T14:14:31;12.20;99.90
43673;DHT22;41723;49.326;8.430;2022-12-24T14:17:01;12.40;99.90
43673;DHT22;41723;49.326;8.430;2022-12-24T14:19:43;12.40;99.90
43673;DHT22;41723;49.326;8.430;2022-12-24T14:24:37;12.40;99.90
43673;DHT22;41723;49.326;8.430;2022-12-24T14:27:28;12.40;99.90
43673;DHT22;41723;49.326;8.430;2022-12-24T14:32:22;12.30;99.90
43673;DHT22;41723;49.326;8.430;2022-12-24T14:35:03;12.40;99.90
43673;DHT22;41723;49.326;8.430;2022-12-24T14:37:29;12.40;99.90
43673;DHT22;41723;49.326;8.430;2022-12-24T14:39:56;12.40;99.90
43673;DHT22;41723;49.326;8.430;2022-12-24T14:45:06;12.30;99.90
43673;DHT22;41723;49.326;8.430;2022-12-24T14:47:39;12.30;99.90
43673;DHT22;41723;49.326;8.430;2022-12-24T14:50:22;12.30;99.90
43673;DHT22;41723;49.326;8.430;2022-12-24T14:55:26;12.30;99.90
43673;DHT22;41723;49.326;8.430;2022-12-24T14:58:12;12.30;99.90
43673;DHT22;41723;49.326;8.430;2022-12-24T15:00:38;12.30;99.90
43673;DHT22;41723;49.326;8.430;2022-12-24T15:03:11;12.30;99.90
43673;DHT22;41723;49.326;8.430;2022-12-24T15:05:37;12.30;99.90
43673;DHT22;41723;49.326;8.430;2022-12-24T15:08:06;12.30;99.90
43673;DHT22;41723;49.326;8.430;2022-12-24T15:10:33;12.30;99.90
43673;DHT22;41723;49.326;8.430;2022-12-24T15:13:04;12.30;99.90
43673;DHT22;41723;49.326;8.430;2022-12-24T15:15:30;12.30;99.90
43673;DHT22;41723;49.326;8.430;2022-12-24T15:17:57;12.30;99.90
43673;DHT22;41723;49.326;8.430;2022-12-24T15:20:23;12.30;99.90
43673;DHT22;41723;49.326;8.430;2022-12-24T15:22:50;12.30;99.90
43673;DHT22;41723;49.326;8.430;2022-12-24T15:25:37;12.30;99.90
43673;DHT22;41723;49.326;8.430;2022-12-24T15:28:02;12.30;99.90
43673;DHT22;41723;49.326;8.430;2022-12-24T15:30:28;12.30;99.90
43673;DHT22;41723;49.326;8.430;2022-12-24T15:32:55;12.30;99.90
43673;DHT22;41723;49.326;8.430;2022-12-24T15:37:59;12.30;99.90
43673;DHT22;41723;49.326;8.430;2022-12-24T15:40:25;12.30;99.90
43673;DHT22;41723;49.326;8.430;2022-12-24T15:42:51;12.30;99.90
43673;DHT22;41723;49.326;8.430;2022-12-24T15:45:20;12.30;99.90
43673;DHT22;41723;49.326;8.430;2022-12-24T15:48:29;12.30;99.90
43673;DHT22;41723;49.326;8.430;2022-12-24T15:50:37;12.30;99.90
43673;DHT22;41723;49.326;8.430;2022-12-24T15:53:10;12.30;99.90
43673;DHT22;41723;49.326;8.430;2022-12-24T15:55:38;12.30;99.90
43673;DHT22;41723;49.326;8.430;2022-12-24T16:00:39;12.30;99.90
43673;DHT22;41723;49.326;8.430;2022-12-24T16:03:09;12.30;99.90
43673;DHT22;41723;49.326;8.430;2022-12-24T16:05:35;12.30;99.90
43673;DHT22;41723;49.326;8.430;2022-12-24T16:08:05;12.30;99.90
43673;DHT22;41723;49.326;8.430;2022-12-24T16:10:38;12.20;99.90
43673;DHT22;41723;49.326;8.430;2022-12-24T16:15:40;12.20;99.90
43673;DHT22;41723;49.326;8.430;2022-12-24T16:18:12;12.10;99.90
43673;DHT22;41723;49.326;8.430;2022-12-24T16:20:39;12.20;99.90
43673;DHT22;41723;49.326;8.430;2022-12-24T16:23:19;12.10;99.90
43673;DHT22;41723;49.326;8.430;2022-12-24T16:25:45;12.10;99.90
43673;DHT22;41723;49.326;8.430;2022-12-24T16:28:11;12.10;99.90
43673;DHT22;41723;49.326;8.430;2022-12-24T16:30:37;12.10;99.90
43673;DHT22;41723;49.326;8.430;2022-12-24T16:33:03;12.10;99.90
43673;DHT22;41723;49.326;8.430;2022-12-24T16:35:29;12.10;99.90
43673;DHT22;41723;49.326;8.430;2022-12-24T16:38:01;12.10;99.90
43673;DHT22;41723;49.326;8.430;2022-12-24T16:40:26;12.10;99.90
43673;DHT22;41723;49.326;8.430;2022-12-24T16:42:52;12.10;99.90
43673;DHT22;41723;49.326;8.430;2022-12-24T16:45:36;12.10;99.90
43673;DHT22;41723;49.326;8.430;2022-12-24T16:48:02;12.10;99.90
43673;DHT22;41723;49.326;8.430;2022-12-24T16:50:39;12.10;99.90
43673;DHT22;41723;49.326;8.430;2022-12-24T16:53:04;12.10;99.90
43673;DHT22;41723;49.326;8.430;2022-12-24T16:55:30;12.20;99.90
43673;DHT22;41723;49.326;8.430;2022-12-24T16:57:56;12.10;99.90
43673;DHT22;41723;49.326;8.430;2022-12-24T17:00:21;12.10;99.90
43673;DHT22;41723;49.326;8.430;2022-12-24T17:02:47;12.10;99.90
43673;DHT22;41723;49.326;8.430;2022-12-24T17:05:13;12.10;99.90
43673;DHT22;41723;49.326;8.430;2022-12-24T17:07:39;12.10;99.90
43673;DHT22;41723;49.326;8.430;2022-12-24T17:10:07;12.10;99.90
43673;DHT22;41723;49.326;8.430;2022-12-24T17:12:33;12.10;99.90
43673;DHT22;41723;49.326;8.430;2022-12-24T17:14:58;12.10;99.90